Trust, North Carolina
Current Conditions -  °F | °C
As of 5:54 PM on Tuesday 21 Oct 2014 (Local Time) from KAVL Reporting Station
Clear Clear  
Wind Chill: 61°   Ceiling: Unl
Heat Index: 61°   Visibility: 10mi
Dew Point: 39°   Wind: 10mph
Humidity: 44%   Direction: 350°N
Pressure: 29.96"   Gusts: 20mph
Location:  35.8037°N, 82.868°W
Report Text: KAVL 212154Z 35009G17KT 10SM CLR 16/04 A2996 RMK AO2 SLP138 T01610039
Loading
Personal Weather Stations






























Interactive Weather Map
Tropical Storm Tracking
New forecast layout! Learn more

10-Day Weather Forecast

Advertisements
Track Severe Weather on mobile